createdAt,value
2019-05-05T00:02:20.233Z,7.80
2019-05-05T00:05:08.430Z,5.20
2019-05-05T00:07:36.944Z,5.23
2019-05-05T00:10:09.642Z,4.00
2019-05-05T00:12:56.518Z,3.70
2019-05-05T00:15:44.990Z,5.67
2019-05-05T00:18:15.445Z,3.60
2019-05-05T00:20:44.961Z,4.20
2019-05-05T00:23:14.682Z,2.60
2019-05-05T00:25:44.736Z,3.50
2019-05-05T00:28:14.612Z,4.73
2019-05-05T00:30:44.895Z,3.70
2019-05-05T00:33:14.686Z,4.00
2019-05-05T00:35:45.161Z,4.87
2019-05-05T00:38:15.101Z,3.30
2019-05-05T00:40:44.806Z,2.40
2019-05-05T00:43:14.849Z,2.73
2019-05-05T00:45:46.092Z,4.73
2019-05-05T00:48:30.601Z,3.70
2019-05-05T00:51:00.139Z,2.23
2019-05-05T00:53:29.669Z,3.63
2019-05-05T00:55:59.343Z,4.30
2019-05-05T00:58:30.732Z,5.37
2019-05-05T01:01:20.831Z,3.87
2019-05-05T01:03:50.686Z,3.77
2019-05-05T01:06:26.489Z,3.60
2019-05-05T01:08:55.909Z,2.30
2019-05-05T01:11:25.861Z,4.30
2019-05-05T01:13:55.731Z,4.13
2019-05-05T01:16:25.693Z,4.63
2019-05-05T01:18:55.635Z,3.33
2019-05-05T01:21:25.344Z,5.00
2019-05-05T01:23:54.988Z,2.57
2019-05-05T01:26:25.033Z,3.80
2019-05-05T01:28:56.318Z,5.13
2019-05-05T01:31:26.421Z,3.20
2019-05-05T01:34:07.480Z,3.40
2019-05-05T01:36:37.109Z,6.07
2019-05-05T01:39:31.881Z,3.93
2019-05-05T01:42:05.379Z,3.87
2019-05-05T01:44:35.296Z,3.40
2019-05-05T01:47:05.401Z,3.40
2019-05-05T01:49:35.058Z,3.97
2019-05-05T01:52:04.885Z,3.20
2019-05-05T01:54:35.263Z,3.70
2019-05-05T01:57:05.713Z,3.87
2019-05-05T01:59:35.649Z,3.90
2019-05-05T02:02:05.709Z,3.47
2019-05-05T02:04:35.464Z,2.63
2019-05-05T02:07:06.078Z,3.23
2019-05-05T02:09:35.763Z,3.30
2019-05-05T02:12:05.447Z,3.23
2019-05-05T02:14:35.373Z,5.03
2019-05-05T02:17:05.246Z,4.73
2019-05-05T02:19:35.144Z,3.60
2019-05-05T02:22:05.443Z,3.27
2019-05-05T02:24:35.467Z,3.77
2019-05-05T02:27:05.565Z,6.47
2019-05-05T02:29:57.379Z,6.30
2019-05-05T02:32:46.064Z,4.87
2019-05-05T02:35:16.895Z,5.63
2019-05-05T02:37:46.793Z,3.27
2019-05-05T02:40:17.063Z,5.37
2019-05-05T02:42:47.155Z,3.33
2019-05-05T02:45:40.670Z,4.07
2019-05-05T02:48:15.493Z,3.83
2019-05-05T02:51:00.090Z,4.27
2019-05-05T02:53:27.716Z,4.63
2019-05-05T02:56:01.734Z,4.77
2019-05-05T02:58:33.961Z,2.87
2019-05-05T03:01:30.056Z,4.43
2019-05-05T03:04:01.245Z,5.57
2019-05-05T03:06:30.746Z,2.90
2019-05-05T03:09:01.603Z,2.63
2019-05-05T03:11:34.344Z,4.93
2019-05-05T03:14:06.820Z,4.90
2019-05-05T03:16:38.766Z,3.20
2019-05-05T03:19:09.689Z,3.17
2019-05-05T03:21:39.853Z,3.40
2019-05-05T03:24:10.267Z,6.30
2019-05-05T03:26:40.842Z,4.47
2019-05-05T03:29:13.939Z,4.40
2019-05-05T03:31:45.868Z,4.10
2019-05-05T03:34:16.562Z,5.43
2019-05-05T03:36:46.786Z,5.03
2019-05-05T03:39:23.616Z,7.27
2019-05-05T03:42:13.935Z,5.07
2019-05-05T03:45:05.688Z,4.67
2019-05-05T03:47:36.529Z,3.27
2019-05-05T03:50:07.072Z,7.00
2019-05-05T03:52:36.950Z,3.93
2019-05-05T03:55:07.466Z,3.50
2019-05-05T03:57:37.491Z,3.83
2019-05-05T04:00:08.106Z,3.40
2019-05-05T04:02:54.741Z,3.93
2019-05-05T04:05:44.433Z,5.57
2019-05-05T04:08:14.533Z,7.00
2019-05-05T04:10:44.654Z,4.43
2019-05-05T04:13:16.626Z,8.33
2019-05-05T04:16:06.808Z,4.63
2019-05-05T04:18:41.201Z,2.90
2019-05-05T04:21:11.055Z,3.93
2019-05-05T04:23:40.689Z,6.63
2019-05-05T04:26:10.419Z,21.97
2019-05-05T04:28:40.130Z,9.90
2019-05-05T04:31:09.996Z,7.73
2019-05-05T04:33:39.616Z,5.20
2019-05-05T04:36:09.329Z,6.40
2019-05-05T04:38:38.853Z,5.57
2019-05-05T04:41:08.623Z,4.63
2019-05-05T04:43:38.033Z,3.77
2019-05-05T04:46:07.757Z,7.47
2019-05-05T04:48:55.736Z,6.23
2019-05-05T04:51:29.059Z,5.27
2019-05-05T04:54:26.286Z,6.90
2019-05-05T04:56:56.137Z,5.53
2019-05-05T04:59:25.729Z,5.40
2019-05-05T05:01:58.081Z,5.17
2019-05-05T05:04:49.780Z,7.30
2019-05-05T05:07:20.010Z,8.53
2019-05-05T05:09:49.644Z,5.97
2019-05-05T05:12:19.079Z,5.73
2019-05-05T05:14:48.789Z,5.97
2019-05-05T05:17:27.264Z,2.87
2019-05-05T05:19:56.875Z,3.33
2019-05-05T05:22:26.614Z,4.07
2019-05-05T05:24:56.133Z,3.47
2019-05-05T05:27:26.020Z,3.20
2019-05-05T05:29:55.821Z,9.63
2019-05-05T05:32:25.242Z,4.20
2019-05-05T05:34:54.742Z,4.20
2019-05-05T05:37:24.176Z,5.33
2019-05-05T05:40:03.948Z,3.83
2019-05-05T05:42:33.675Z,3.57
2019-05-05T05:45:21.062Z,4.87
2019-05-05T05:48:08.350Z,4.00
2019-05-05T05:50:44.199Z,4.83
2019-05-05T05:53:14.033Z,6.13
2019-05-05T05:55:44.817Z,4.33
2019-05-05T05:58:14.343Z,4.53
2019-05-05T06:00:44.452Z,5.13
2019-05-05T06:03:14.284Z,7.80
2019-05-05T06:05:43.821Z,6.40
2019-05-05T06:08:14.163Z,6.97
2019-05-05T06:10:44.492Z,7.67
2019-05-05T06:13:15.488Z,5.67
2019-05-05T06:15:45.236Z,5.20
2019-05-05T06:18:14.746Z,6.10
2019-05-05T06:20:44.679Z,5.73
2019-05-05T06:23:14.895Z,4.83
2019-05-05T06:25:44.983Z,8.33
2019-05-05T06:28:14.772Z,4.83
2019-05-05T06:30:44.524Z,5.50
2019-05-05T06:33:14.546Z,5.53
2019-05-05T06:35:44.514Z,6.03
2019-05-05T06:38:14.293Z,6.60
2019-05-05T06:41:11.925Z,6.33
2019-05-05T06:44:03.731Z,5.10
2019-05-05T06:46:53.745Z,5.63
2019-05-05T06:49:23.887Z,7.80
2019-05-05T06:51:54.675Z,5.37
2019-05-05T06:54:24.752Z,5.47
2019-05-05T06:56:54.389Z,5.73
2019-05-05T06:59:24.471Z,4.57
2019-05-05T07:01:54.071Z,6.17
2019-05-05T07:04:24.526Z,7.47
2019-05-05T07:06:57.045Z,6.40
2019-05-05T07:09:25.851Z,7.37
2019-05-05T07:11:55.677Z,9.87
2019-05-05T07:14:25.281Z,13.17
2019-05-05T07:16:55.157Z,29.03
2019-05-05T07:19:24.907Z,26.20
2019-05-05T07:21:54.931Z,26.70
2019-05-05T07:24:24.688Z,10.93
2019-05-05T07:26:54.454Z,14.93
2019-05-05T07:29:24.120Z,9.50
2019-05-05T07:31:54.576Z,11.03
2019-05-05T07:34:26.337Z,9.30
2019-05-05T07:36:55.984Z,8.53
2019-05-05T07:39:25.735Z,8.77
2019-05-05T07:41:55.448Z,8.23
2019-05-05T07:44:29.293Z,7.97
2019-05-05T07:46:56.123Z,5.60
2019-05-05T07:49:25.582Z,6.50
2019-05-05T07:51:55.429Z,5.33
2019-05-05T07:54:25.130Z,6.40
2019-05-05T07:56:54.822Z,5.97
2019-05-05T07:59:24.350Z,6.03
2019-05-05T08:01:54.758Z,6.30
2019-05-05T08:04:24.548Z,5.70
2019-05-05T08:06:54.374Z,5.07
2019-05-05T08:09:24.939Z,4.50
2019-05-05T08:11:54.628Z,4.17
2019-05-05T08:14:24.687Z,6.30
2019-05-05T08:17:12.027Z,7.10
2019-05-05T08:19:48.549Z,4.43
2019-05-05T08:22:18.439Z,5.13
2019-05-05T08:25:06.784Z,5.37
2019-05-05T08:27:45.631Z,5.53
2019-05-05T08:30:21.686Z,6.13
2019-05-05T08:32:51.602Z,7.23
2019-05-05T08:35:21.023Z,5.77
2019-05-05T08:37:50.563Z,5.43
2019-05-05T08:40:20.334Z,6.27
2019-05-05T08:42:50.000Z,5.83
2019-05-05T08:45:19.743Z,5.83
2019-05-05T08:47:49.557Z,4.93
2019-05-05T08:50:19.539Z,5.40
2019-05-05T08:52:49.260Z,5.73
2019-05-05T08:55:19.022Z,5.10
2019-05-05T08:57:48.953Z,8.63
2019-05-05T09:00:18.506Z,6.33
2019-05-05T09:02:48.362Z,5.37
2019-05-05T09:05:17.975Z,4.07
2019-05-05T09:07:47.595Z,4.93
2019-05-05T09:10:17.530Z,3.00
2019-05-05T09:12:47.297Z,4.37
2019-05-05T09:15:17.151Z,4.57
2019-05-05T09:17:46.964Z,6.03
2019-05-05T09:20:17.062Z,5.90
2019-05-05T09:22:46.854Z,4.47
2019-05-05T09:25:34.493Z,3.70
2019-05-05T09:28:38.375Z,3.97
2019-05-05T09:31:08.222Z,3.60
2019-05-05T09:33:38.011Z,3.03
2019-05-05T09:36:07.621Z,3.00
2019-05-05T09:38:37.051Z,2.60
2019-05-05T09:41:06.474Z,3.93
2019-05-05T09:43:36.021Z,4.80
2019-05-05T09:46:05.512Z,4.13
2019-05-05T09:48:35.038Z,4.33
2019-05-05T09:51:04.913Z,5.00
2019-05-05T09:53:34.763Z,4.37
2019-05-05T09:56:04.620Z,3.33
2019-05-05T09:58:34.848Z,4.80
2019-05-05T10:01:05.092Z,4.65
2019-05-05T10:03:34.754Z,3.70
2019-05-05T10:06:05.097Z,4.47
2019-05-05T10:08:35.192Z,5.62
2019-05-05T10:11:05.047Z,3.60
2019-05-05T10:13:34.994Z,3.70
2019-05-05T10:16:05.407Z,5.22
2019-05-05T10:18:35.991Z,4.25
2019-05-05T10:21:06.036Z,3.72
2019-05-05T10:23:37.672Z,3.12
2019-05-05T10:26:09.849Z,5.05
2019-05-05T10:28:39.756Z,2.98
2019-05-05T10:31:09.543Z,4.47
2019-05-05T10:33:42.398Z,2.92
2019-05-05T10:36:13.856Z,3.72
2019-05-05T10:38:46.208Z,2.67
2019-05-05T10:41:15.952Z,5.22
2019-05-05T10:43:45.677Z,6.47
2019-05-05T10:46:18.097Z,5.08
2019-05-05T10:48:47.919Z,3.02
2019-05-05T10:51:17.607Z,4.65
2019-05-05T10:53:47.296Z,4.25
2019-05-05T10:56:17.146Z,4.58
2019-05-05T10:58:47.309Z,5.53
2019-05-05T11:01:16.924Z,6.80
2019-05-05T11:03:46.652Z,4.90
2019-05-05T11:06:16.940Z,4.10
2019-05-05T11:08:46.750Z,3.95
2019-05-05T11:11:16.493Z,5.55
2019-05-05T11:13:47.131Z,6.17
2019-05-05T11:16:17.022Z,4.55
2019-05-05T11:18:47.130Z,6.30
2019-05-05T11:21:16.767Z,5.65
2019-05-05T11:23:46.383Z,6.40
2019-05-05T11:26:16.124Z,4.40
2019-05-05T11:28:45.533Z,3.37
2019-05-05T11:31:15.597Z,5.17
2019-05-05T11:34:19.497Z,5.90
2019-05-05T11:37:10.950Z,5.37
2019-05-05T11:39:40.608Z,5.50
2019-05-05T11:42:10.422Z,5.58
2019-05-05T11:44:40.114Z,6.58
2019-05-05T11:47:09.556Z,4.20
2019-05-05T11:49:39.380Z,5.53
2019-05-05T11:52:09.119Z,5.22
2019-05-05T11:54:38.840Z,4.10
2019-05-05T11:57:08.676Z,5.05
2019-05-05T11:59:38.348Z,5.28
2019-05-05T12:02:08.292Z,6.60
2019-05-05T12:04:37.800Z,5.47
2019-05-05T12:07:07.568Z,7.20
2019-05-05T12:09:44.452Z,7.23
2019-05-05T12:12:14.289Z,4.97
2019-05-05T12:14:44.033Z,5.50
2019-05-05T12:17:15.587Z,6.70
2019-05-05T12:19:45.125Z,6.60
2019-05-05T12:22:14.780Z,8.90
2019-05-05T12:24:46.704Z,5.83
2019-05-05T12:27:35.373Z,5.37
2019-05-05T12:30:08.498Z,4.93
2019-05-05T12:32:38.245Z,7.37
2019-05-05T12:35:08.224Z,7.63
2019-05-05T12:37:38.020Z,6.73
2019-05-05T12:40:08.123Z,8.60
2019-05-05T12:42:37.855Z,6.07
2019-05-05T12:45:11.093Z,6.27
2019-05-05T12:47:59.525Z,10.97
2019-05-05T12:50:29.195Z,7.13
2019-05-05T12:52:58.899Z,7.03
2019-05-05T12:55:40.568Z,7.87
2019-05-05T12:58:00.262Z,6.83
2019-05-05T13:00:30.234Z,6.73
2019-05-05T13:02:59.730Z,5.50
2019-05-05T13:05:29.474Z,7.03
2019-05-05T13:07:59.025Z,6.77
2019-05-05T13:10:28.559Z,7.63
2019-05-05T13:12:58.237Z,7.10
2019-05-05T13:15:27.698Z,7.50
2019-05-05T13:17:57.482Z,9.30
2019-05-05T13:20:39.169Z,7.83
2019-05-05T13:23:26.186Z,8.73
2019-05-05T13:26:14.946Z,4.97
2019-05-05T13:28:44.592Z,10.00
2019-05-05T13:31:14.415Z,7.80
2019-05-05T13:33:44.374Z,10.53
2019-05-05T13:36:14.012Z,10.80
2019-05-05T13:38:43.907Z,10.77
2019-05-05T13:41:13.670Z,9.37
2019-05-05T13:43:43.362Z,6.47
2019-05-05T13:46:24.580Z,5.90
2019-05-05T13:48:53.982Z,9.47
2019-05-05T13:51:24.127Z,7.53
2019-05-05T13:53:54.027Z,7.57
2019-05-05T13:56:24.619Z,10.20
2019-05-05T13:58:54.377Z,9.70
2019-05-05T14:01:24.103Z,8.90
2019-05-05T14:03:54.257Z,10.03
2019-05-05T14:06:25.302Z,5.03
2019-05-05T14:08:55.192Z,5.47
2019-05-05T14:11:25.006Z,8.23
2019-05-05T14:13:54.817Z,8.77
2019-05-05T14:16:24.588Z,7.23
2019-05-05T14:18:54.256Z,8.07
2019-05-05T14:21:24.477Z,9.40
2019-05-05T14:24:00.682Z,9.63
2019-05-05T14:26:32.298Z,7.33
2019-05-05T14:29:01.674Z,6.67
2019-05-05T14:31:34.823Z,6.40
2019-05-05T14:34:10.892Z,6.30
2019-05-05T14:37:11.148Z,7.60
2019-05-05T14:39:40.339Z,6.70
2019-05-05T14:42:10.074Z,7.00
2019-05-05T14:44:39.861Z,10.13
2019-05-05T14:47:09.589Z,8.63
2019-05-05T14:49:39.322Z,6.60
2019-05-05T14:52:09.042Z,7.70
2019-05-05T14:54:38.808Z,9.17
2019-05-05T14:57:08.589Z,9.23
2019-05-05T14:59:38.334Z,8.53
2019-05-05T15:02:07.856Z,8.57
2019-05-05T15:04:39.205Z,8.03
2019-05-05T15:07:17.946Z,10.43
2019-05-05T15:09:51.662Z,10.00
2019-05-05T15:12:34.603Z,9.17
2019-05-05T15:15:07.340Z,6.20
2019-05-05T15:17:36.394Z,9.60
2019-05-05T15:20:06.905Z,9.33
2019-05-05T15:22:36.407Z,7.77
2019-05-05T15:25:06.561Z,5.67
2019-05-05T15:27:36.078Z,7.23
2019-05-05T15:30:06.390Z,7.73
2019-05-05T15:32:36.149Z,10.63
2019-05-05T15:35:06.662Z,7.83
2019-05-05T15:37:36.620Z,7.93
2019-05-05T15:40:06.932Z,7.10
2019-05-05T15:42:36.654Z,8.33
2019-05-05T15:45:06.834Z,7.20
2019-05-05T15:47:36.638Z,7.07
2019-05-05T15:50:06.734Z,6.47
2019-05-05T15:52:36.789Z,11.00
2019-05-05T15:55:07.605Z,6.70
2019-05-05T15:57:37.490Z,9.10
2019-05-05T16:00:07.380Z,7.10
2019-05-05T16:02:37.188Z,11.00
2019-05-05T16:05:07.208Z,10.23
2019-05-05T16:07:37.101Z,10.37
2019-05-05T16:10:07.471Z,9.07
2019-05-05T16:12:39.764Z,7.03
2019-05-05T16:15:40.816Z,11.80
2019-05-05T16:18:19.183Z,6.70
2019-05-05T16:20:54.656Z,9.83
2019-05-05T16:23:27.454Z,9.23
2019-05-05T16:25:57.202Z,7.33
2019-05-05T16:28:26.798Z,12.53
2019-05-05T16:30:56.519Z,9.83
2019-05-05T16:33:26.385Z,11.87
2019-05-05T16:35:55.986Z,14.73
2019-05-05T16:38:25.669Z,10.13
2019-05-05T16:40:55.363Z,11.33
2019-05-05T16:43:24.883Z,8.53
2019-05-05T16:45:54.428Z,8.73
2019-05-05T16:48:25.793Z,7.70
2019-05-05T16:50:55.795Z,12.20
2019-05-05T16:53:35.632Z,9.37
2019-05-05T16:56:07.676Z,7.50
2019-05-05T16:58:37.175Z,8.90
2019-05-05T17:01:10.186Z,11.23
2019-05-05T17:03:39.953Z,9.63
2019-05-05T17:06:09.383Z,9.50
2019-05-05T17:08:38.930Z,9.53
2019-05-05T17:11:08.452Z,12.43
2019-05-05T17:13:46.388Z,8.43
2019-05-05T17:16:35.324Z,11.27
2019-05-05T17:19:30.375Z,9.73
2019-05-05T17:22:18.726Z,6.93
2019-05-05T17:24:48.363Z,12.53
2019-05-05T17:27:18.100Z,13.43
2019-05-05T17:29:47.916Z,14.73
2019-05-05T17:32:17.848Z,6.43
2019-05-05T17:34:47.589Z,11.37
2019-05-05T17:37:17.015Z,9.50
2019-05-05T17:39:54.467Z,12.13
2019-05-05T17:42:35.147Z,9.93
2019-05-05T17:45:14.959Z,12.63
2019-05-05T17:48:09.950Z,11.57
2019-05-05T17:50:57.979Z,10.17
2019-05-05T17:53:36.174Z,9.77
2019-05-05T17:56:06.907Z,9.67
2019-05-05T17:58:36.447Z,11.47
2019-05-05T18:01:06.105Z,12.87
2019-05-05T18:03:35.896Z,16.83
2019-05-05T18:06:36.797Z,20.70
2019-05-05T18:09:14.065Z,18.27
2019-05-05T18:12:07.400Z,21.07
2019-05-05T18:14:37.287Z,23.93
2019-05-05T18:17:07.159Z,20.13
2019-05-05T18:19:38.986Z,18.33
2019-05-05T18:22:08.794Z,14.93
2019-05-05T18:24:38.290Z,13.20
2019-05-05T18:27:08.018Z,14.73
2019-05-05T18:29:37.625Z,23.17
2019-05-05T18:32:07.158Z,15.63
2019-05-05T18:34:36.693Z,14.33
2019-05-05T18:37:06.125Z,18.70
2019-05-05T18:39:35.795Z,14.73
2019-05-05T18:42:13.991Z,14.20
2019-05-05T18:44:45.864Z,9.83
2019-05-05T18:47:19.532Z,9.43
2019-05-05T18:49:49.110Z,10.63
2019-05-05T18:52:18.856Z,11.40
2019-05-05T18:54:48.685Z,7.03
2019-05-05T18:57:18.420Z,6.60
2019-05-05T18:59:47.856Z,8.27
2019-05-05T19:02:35.483Z,7.77
2019-05-05T19:05:19.825Z,9.43
2019-05-05T19:08:14.386Z,8.07
2019-05-05T19:10:43.851Z,6.57
2019-05-05T19:13:13.780Z,8.53
2019-05-05T19:15:43.702Z,5.53
2019-05-05T19:18:14.053Z,8.37
2019-05-05T19:21:03.621Z,7.43
2019-05-05T19:23:33.798Z,7.27
2019-05-05T19:26:07.518Z,6.63
2019-05-05T19:28:43.909Z,8.83
2019-05-05T19:31:07.823Z,5.90
2019-05-05T19:33:37.505Z,6.50
2019-05-05T19:36:06.962Z,6.30
2019-05-05T19:38:36.747Z,8.40
2019-05-05T19:41:06.256Z,6.30
2019-05-05T19:43:37.654Z,6.30
2019-05-05T19:46:08.763Z,7.17
2019-05-05T19:48:38.538Z,8.03
2019-05-05T19:51:11.561Z,11.00
2019-05-05T19:53:41.368Z,5.20
2019-05-05T19:56:10.972Z,5.83
2019-05-05T19:58:40.652Z,7.80
2019-05-05T20:01:10.178Z,8.07
2019-05-05T20:03:44.150Z,8.10
2019-05-05T20:06:14.264Z,7.57
2019-05-05T20:08:44.392Z,5.07
2019-05-05T20:11:14.382Z,9.30
2019-05-05T20:13:44.623Z,8.67
2019-05-05T20:16:26.791Z,6.90
2019-05-05T20:18:56.463Z,8.07
2019-05-05T20:21:26.325Z,6.57
2019-05-05T20:23:56.063Z,6.30
2019-05-05T20:26:25.773Z,5.80
2019-05-05T20:28:55.622Z,9.77
2019-05-05T20:31:25.237Z,8.63
2019-05-05T20:34:04.907Z,6.93
2019-05-05T20:36:35.155Z,7.33
2019-05-05T20:39:06.707Z,5.43
2019-05-05T20:41:36.544Z,7.27
2019-05-05T20:44:08.853Z,5.93
2019-05-05T20:46:38.617Z,8.03
2019-05-05T20:49:08.320Z,7.13
2019-05-05T20:51:37.750Z,6.00
2019-05-05T20:54:07.688Z,7.37
2019-05-05T20:56:37.384Z,7.63
2019-05-05T20:59:06.795Z,5.30
2019-05-05T21:01:36.239Z,8.00
2019-05-05T21:04:05.903Z,5.57
2019-05-05T21:06:35.704Z,7.07
2019-05-05T21:09:07.185Z,12.00
2019-05-05T21:11:37.261Z,7.83
2019-05-05T21:14:07.052Z,8.83
2019-05-05T21:16:36.815Z,7.87
2019-05-05T21:19:06.338Z,10.03
2019-05-05T21:21:37.564Z,7.43
2019-05-05T21:24:07.815Z,4.63
2019-05-05T21:27:13.768Z,6.10
2019-05-05T21:29:43.464Z,9.57
2019-05-05T21:32:13.867Z,9.13
2019-05-05T21:34:44.415Z,7.53
2019-05-05T21:37:14.332Z,10.67
2019-05-05T21:39:45.470Z,7.97
2019-05-05T21:42:15.250Z,7.00
2019-05-05T21:44:44.960Z,6.20
2019-05-05T21:47:14.698Z,9.17
2019-05-05T21:49:44.370Z,8.47
2019-05-05T21:52:28.567Z,9.10
2019-05-05T21:55:08.337Z,9.67
2019-05-05T21:57:55.431Z,12.33
2019-05-05T22:00:44.238Z,8.07
2019-05-05T22:03:17.132Z,9.33
2019-05-05T22:05:46.746Z,8.70
2019-05-05T22:08:16.617Z,6.10
2019-05-05T22:10:46.019Z,7.23
2019-05-05T22:13:15.790Z,7.70
2019-05-05T22:15:45.587Z,7.87
2019-05-05T22:18:15.188Z,8.50
2019-05-05T22:20:49.640Z,10.27
2019-05-05T22:23:19.078Z,10.00
2019-05-05T22:25:48.786Z,6.73
2019-05-05T22:28:18.276Z,8.50
2019-05-05T22:30:48.052Z,9.80
2019-05-05T22:33:17.782Z,8.93
2019-05-05T22:35:48.922Z,6.33
2019-05-05T22:38:18.567Z,8.37
2019-05-05T22:40:51.207Z,9.77
2019-05-05T22:43:20.879Z,6.53
2019-05-05T22:45:50.520Z,5.17
2019-05-05T22:48:20.159Z,7.87
2019-05-05T22:50:50.014Z,7.97
2019-05-05T22:53:19.863Z,7.53
2019-05-05T22:55:49.378Z,7.60
2019-05-05T22:58:19.088Z,7.73
2019-05-05T23:00:49.064Z,6.33
2019-05-05T23:03:30.944Z,5.17
2019-05-05T23:06:04.640Z,9.23
2019-05-05T23:08:35.113Z,11.17
2019-05-05T23:11:04.997Z,10.47
2019-05-05T23:13:34.862Z,11.23
2019-05-05T23:16:14.773Z,15.57
2019-05-05T23:18:44.602Z,13.70
2019-05-05T23:21:31.349Z,6.90
2019-05-05T23:24:35.121Z,10.10
2019-05-05T23:27:04.743Z,8.77
2019-05-05T23:29:34.545Z,8.93
2019-05-05T23:32:04.357Z,13.17
2019-05-05T23:34:34.022Z,8.87
2019-05-05T23:37:04.306Z,8.70
2019-05-05T23:39:34.088Z,9.63
2019-05-05T23:42:04.138Z,9.73
2019-05-05T23:44:36.543Z,9.43
2019-05-05T23:47:06.074Z,9.57
2019-05-05T23:49:35.792Z,15.17
2019-05-05T23:52:05.672Z,10.23
2019-05-05T23:54:35.422Z,11.83
2019-05-05T23:57:05.228Z,10.20
2019-05-05T23:59:34.967Z,13.23
